createdAt,value
2017-02-10T00:00:25.429Z,0
2017-02-10T00:01:07.031Z,0
2017-02-10T00:03:48.622Z,0
2017-02-10T00:04:30.224Z,0
2017-02-10T00:06:50.819Z,0
2017-02-10T00:07:32.518Z,0
2017-02-10T00:08:14.012Z,0
2017-02-10T00:08:55.761Z,0
2017-02-10T00:13:26.514Z,0
2017-02-10T00:14:08.121Z,0
2017-02-10T00:14:49.718Z,0
2017-02-10T00:15:31.304Z,0
2017-02-10T00:18:07.245Z,0
2017-02-10T00:18:48.967Z,0
2017-02-10T00:19:30.576Z,0
2017-02-10T00:20:12.190Z,0
2017-02-10T00:20:53.491Z,0
2017-02-10T00:21:35.028Z,0
2017-02-10T00:22:16.664Z,0
2017-02-10T00:24:32.003Z,0
2017-02-10T00:25:13.516Z,0
2017-02-10T00:25:54.982Z,0
2017-02-10T00:26:36.699Z,0
2017-02-10T00:27:18.438Z,0
2017-02-10T00:29:33.814Z,0
2017-02-10T00:30:15.515Z,0
2017-02-10T00:30:57.156Z,0
2017-02-10T00:31:38.681Z,0
2017-02-10T00:33:53.952Z,0
2017-02-10T00:34:35.426Z,0
2017-02-10T00:35:17.123Z,0
2017-02-10T00:35:58.486Z,0
2017-02-10T00:36:40.086Z,0
2017-02-10T00:37:21.712Z,0
2017-02-10T00:38:03.362Z,0
2017-02-10T00:42:29.135Z,0
2017-02-10T00:43:10.753Z,0
2017-02-10T00:43:52.477Z,0
2017-02-10T00:44:34.221Z,0
2017-02-10T00:45:15.891Z,0
2017-02-10T00:45:57.208Z,0
2017-02-10T00:46:38.788Z,0
2017-02-10T00:49:09.655Z,0
2017-02-10T00:49:51.329Z,0
2017-02-10T00:50:32.818Z,0
2017-02-10T00:51:14.522Z,0
2017-02-10T00:51:56.221Z,0
2017-02-10T00:56:16.612Z,0
2017-02-10T00:56:58.225Z,0
2017-02-10T00:59:18.811Z,0
2017-02-10T01:00:00.572Z,0
2017-02-10T01:00:42.131Z,0
2017-02-10T01:01:23.321Z,0
2017-02-10T01:02:05.004Z,0
2017-02-10T01:02:46.639Z,0
2017-02-10T01:03:28.463Z,0
2017-02-10T01:04:10.055Z,0
2017-02-10T01:04:51.779Z,0
2017-02-10T01:07:07.236Z,0
2017-02-10T01:07:48.842Z,0
2017-02-10T01:08:30.239Z,0
2017-02-10T01:09:11.753Z,0
2017-02-10T01:09:53.491Z,0
2017-02-10T01:12:14.087Z,0
2017-02-10T01:12:55.661Z,0
2017-02-10T01:13:37.376Z,0
2017-02-10T01:14:19.157Z,0
2017-02-10T01:15:00.867Z,0
2017-02-10T01:15:42.499Z,0
2017-02-10T01:18:13.412Z,0
2017-02-10T01:18:55.170Z,0
2017-02-10T01:21:31.624Z,0
2017-02-10T01:22:13.387Z,0
2017-02-10T01:22:55.065Z,0
2017-02-10T01:25:31.542Z,0
2017-02-10T01:26:13.268Z,0
2017-02-10T01:26:55.006Z,0
2017-02-10T01:27:36.684Z,0
2017-02-10T01:28:18.294Z,0
2017-02-10T01:30:33.679Z,0
2017-02-10T01:32:48.908Z,0
2017-02-10T01:33:30.687Z,0
2017-02-10T01:34:12.487Z,0
2017-02-10T01:34:54.220Z,0
2017-02-10T01:37:09.197Z,0
2017-02-10T01:41:40.179Z,0
2017-02-10T01:44:22.013Z,0
2017-02-10T01:45:03.697Z,0
2017-02-10T01:45:45.282Z,0
2017-02-10T01:46:26.720Z,0
2017-02-10T01:47:08.473Z,0
2017-02-10T01:51:28.764Z,0
2017-02-10T01:52:10.375Z,0
2017-02-10T01:52:52.009Z,0
2017-02-10T01:53:33.572Z,0
2017-02-10T01:54:15.291Z,0
2017-02-10T01:54:56.994Z,0
2017-02-10T01:57:12.346Z,0
2017-02-10T01:57:54.025Z,0
2017-02-10T01:58:35.696Z,0
2017-02-10T02:00:56.360Z,0
2017-02-10T02:03:26.767Z,0
2017-02-10T02:04:07.296Z,0
2017-02-10T02:04:47.834Z,0
2017-02-10T02:05:28.359Z,0
2017-02-10T02:06:08.888Z,0
2017-02-10T02:06:49.416Z,0
2017-02-10T02:07:29.945Z,0
2017-02-10T02:08:10.488Z,0
2017-02-10T02:08:51.003Z,0
2017-02-10T02:09:31.532Z,0
2017-02-10T02:10:12.062Z,0
2017-02-10T02:10:52.587Z,0
2017-02-10T02:11:33.127Z,0
2017-02-10T02:12:13.656Z,0
2017-02-10T02:12:54.183Z,0
2017-02-10T02:13:34.718Z,0
2017-02-10T02:14:15.251Z,0
2017-02-10T02:14:55.779Z,0
2017-02-10T02:15:36.304Z,0
2017-02-10T02:16:16.835Z,0
2017-02-10T02:16:57.363Z,0
2017-02-10T02:17:37.892Z,0
2017-02-10T02:18:18.433Z,0
2017-02-10T02:18:58.966Z,0
2017-02-10T02:19:39.497Z,0
2017-02-10T02:20:20.029Z,0
2017-02-10T02:21:00.561Z,0
2017-02-10T02:21:41.092Z,0
2017-02-10T02:22:21.624Z,0
2017-02-10T02:23:02.162Z,0
2017-02-10T02:23:42.686Z,0
2017-02-10T02:24:23.225Z,0
2017-02-10T02:25:03.776Z,0
2017-02-10T02:25:44.310Z,0
2017-02-10T02:26:24.847Z,0
2017-02-10T02:27:05.376Z,0
2017-02-10T02:27:45.904Z,0
2017-02-10T02:28:26.433Z,0
2017-02-10T02:29:06.963Z,0
2017-02-10T02:29:47.498Z,0
2017-02-10T02:30:28.015Z,0
2017-02-10T02:31:08.545Z,0
2017-02-10T02:31:49.079Z,0
2017-02-10T02:32:29.612Z,0
2017-02-10T02:33:10.151Z,0
2017-02-10T02:33:50.677Z,0
2017-02-10T02:34:31.199Z,0
2017-02-10T02:35:11.778Z,0
2017-02-10T02:35:52.306Z,0
2017-02-10T02:36:32.838Z,0
2017-02-10T02:37:13.362Z,0
2017-02-10T02:37:53.903Z,0
2017-02-10T02:38:34.432Z,0
2017-02-10T02:39:14.960Z,0
2017-02-10T02:39:55.494Z,0
2017-02-10T02:40:36.015Z,0
2017-02-10T02:41:16.546Z,0
2017-02-10T02:41:57.074Z,0
2017-02-10T02:42:37.605Z,0
2017-02-10T02:43:18.138Z,0
2017-02-10T02:43:58.671Z,0
2017-02-10T02:44:39.205Z,0
2017-02-10T02:45:19.727Z,0
2017-02-10T02:46:00.255Z,0
2017-02-10T02:46:40.789Z,0
2017-02-10T02:47:21.322Z,0
2017-02-10T02:48:01.860Z,0
2017-02-10T02:48:42.376Z,0
2017-02-10T02:49:22.907Z,0
2017-02-10T02:50:03.443Z,0
2017-02-10T02:50:43.972Z,0
2017-02-10T02:51:24.502Z,0
2017-02-10T02:52:05.030Z,0
2017-02-10T02:52:45.559Z,0
2017-02-10T02:53:26.091Z,0
2017-02-10T02:54:06.624Z,0
2017-02-10T02:54:47.150Z,0
2017-02-10T02:55:27.685Z,0
2017-02-10T02:56:08.217Z,0
2017-02-10T02:56:48.744Z,0
2017-02-10T02:57:29.279Z,0
2017-02-10T02:58:09.813Z,0
2017-02-10T02:58:50.342Z,0
2017-02-10T02:59:30.870Z,0
2017-02-10T03:00:11.397Z,0
2017-02-10T03:00:51.927Z,0
2017-02-10T03:01:32.456Z,0
2017-02-10T03:02:12.978Z,0
2017-02-10T03:02:53.505Z,0
2017-02-10T03:03:34.037Z,0
2017-02-10T03:04:14.569Z,0
2017-02-10T03:04:55.102Z,0
2017-02-10T03:05:35.631Z,0
2017-02-10T03:06:16.156Z,0
2017-02-10T03:06:56.687Z,0
2017-02-10T03:07:37.220Z,0
2017-02-10T03:08:17.739Z,0
2017-02-10T03:08:58.274Z,0
2017-02-10T03:09:38.804Z,0
2017-02-10T03:10:19.335Z,0
2017-02-10T03:10:59.864Z,0
2017-02-10T03:11:40.392Z,0
2017-02-10T03:12:20.920Z,0
2017-02-10T03:13:01.455Z,0
2017-02-10T03:13:41.987Z,0
2017-02-10T03:14:22.514Z,0
2017-02-10T03:15:03.043Z,0
2017-02-10T03:15:43.570Z,0
2017-02-10T03:16:24.106Z,0
2017-02-10T03:17:04.650Z,0
2017-02-10T03:17:45.166Z,0
2017-02-10T03:18:25.698Z,0
2017-02-10T03:19:06.223Z,0
2017-02-10T03:19:46.751Z,0
2017-02-10T03:20:27.306Z,0
2017-02-10T03:21:07.817Z,0
2017-02-10T03:21:48.344Z,0
2017-02-10T03:22:28.874Z,0
2017-02-10T03:23:09.408Z,0
2017-02-10T03:23:49.939Z,0
2017-02-10T03:24:30.468Z,0
2017-02-10T03:25:10.995Z,0
2017-02-10T03:25:51.522Z,0
2017-02-10T03:26:32.062Z,0
2017-02-10T03:27:12.580Z,0
2017-02-10T03:27:53.110Z,0
2017-02-10T03:28:33.637Z,0
2017-02-10T03:29:14.165Z,0
2017-02-10T03:29:54.696Z,0
2017-02-10T03:30:35.231Z,0
2017-02-10T03:31:15.753Z,0
2017-02-10T03:31:56.281Z,0
2017-02-10T03:32:36.813Z,0
2017-02-10T03:33:17.347Z,0
2017-02-10T03:33:57.883Z,0
2017-02-10T03:34:38.411Z,0
2017-02-10T03:35:18.939Z,0
2017-02-10T03:35:59.466Z,0
2017-02-10T03:36:39.992Z,0
2017-02-10T03:37:20.529Z,0
2017-02-10T03:38:01.053Z,0
2017-02-10T03:38:41.584Z,0
2017-02-10T03:39:22.118Z,0
2017-02-10T03:40:02.655Z,0
2017-02-10T03:40:43.188Z,0
2017-02-10T03:41:23.715Z,0
2017-02-10T03:42:04.247Z,0
2017-02-10T03:42:44.776Z,0
2017-02-10T03:43:25.302Z,0
2017-02-10T03:44:05.824Z,0
2017-02-10T03:44:46.356Z,0
2017-02-10T03:45:26.886Z,0
2017-02-10T03:46:07.414Z,0
2017-02-10T03:46:47.978Z,0
2017-02-10T03:47:28.511Z,0
2017-02-10T03:48:09.043Z,0
2017-02-10T03:48:52.104Z,0
2017-02-10T03:49:32.679Z,0
2017-02-10T03:50:13.208Z,0
2017-02-10T03:50:53.735Z,0
2017-02-10T03:51:34.262Z,0
2017-02-10T03:52:14.795Z,0
2017-02-10T03:52:55.325Z,0
2017-02-10T03:53:35.846Z,0
2017-02-10T03:54:16.377Z,0
2017-02-10T03:54:56.906Z,0
2017-02-10T03:55:37.433Z,0
2017-02-10T03:56:17.962Z,0
2017-02-10T03:56:58.489Z,0
2017-02-10T03:57:39.022Z,0
2017-02-10T03:58:19.558Z,0
2017-02-10T03:59:00.087Z,0
2017-02-10T03:59:40.616Z,0
2017-02-10T04:00:21.147Z,0
2017-02-10T04:01:01.676Z,0
2017-02-10T04:01:42.200Z,0
2017-02-10T04:02:22.730Z,0
2017-02-10T04:03:03.262Z,0
2017-02-10T04:03:43.982Z,0
2017-02-10T04:04:24.492Z,0
2017-02-10T04:05:05.022Z,0
2017-02-10T04:05:45.549Z,0
2017-02-10T04:06:26.082Z,0
2017-02-10T04:07:06.618Z,0
2017-02-10T04:07:47.144Z,0
2017-02-10T04:08:27.673Z,0
2017-02-10T04:09:08.203Z,0
2017-02-10T04:09:48.733Z,0
2017-02-10T04:10:29.270Z,0
2017-02-10T04:11:09.801Z,0
2017-02-10T04:11:50.333Z,0
2017-02-10T04:12:30.861Z,0
2017-02-10T04:13:11.391Z,0
2017-02-10T04:13:51.935Z,0
2017-02-10T04:14:32.463Z,0
2017-02-10T04:15:12.990Z,0
2017-02-10T04:15:53.517Z,0
2017-02-10T04:16:34.058Z,0
2017-02-10T04:17:14.582Z,0
2017-02-10T04:17:55.115Z,0
2017-02-10T04:18:35.641Z,0
2017-02-10T04:19:16.168Z,0
2017-02-10T04:19:56.697Z,0
2017-02-10T04:20:37.224Z,0
2017-02-10T04:21:17.756Z,0
2017-02-10T04:21:58.285Z,0
2017-02-10T04:22:38.815Z,0
2017-02-10T04:23:19.343Z,0
2017-02-10T04:23:59.876Z,0
2017-02-10T04:24:40.404Z,0
2017-02-10T04:25:20.932Z,0
2017-02-10T04:26:01.459Z,0
2017-02-10T04:26:41.988Z,0
2017-02-10T04:27:22.521Z,0
2017-02-10T04:28:03.050Z,0
2017-02-10T04:28:43.585Z,0
2017-02-10T04:29:24.117Z,0
2017-02-10T04:30:04.645Z,0
2017-02-10T04:30:45.180Z,0
2017-02-10T04:31:25.732Z,0
2017-02-10T04:32:06.260Z,0
2017-02-10T04:32:46.788Z,0
2017-02-10T04:33:27.320Z,0
2017-02-10T04:34:07.852Z,0
2017-02-10T04:34:48.385Z,0
2017-02-10T04:35:28.914Z,0
2017-02-10T04:36:09.440Z,0
2017-02-10T04:36:49.965Z,0
2017-02-10T04:37:30.499Z,0
2017-02-10T04:38:11.036Z,0
2017-02-10T04:38:51.565Z,0
2017-02-10T04:39:32.097Z,0
2017-02-10T04:40:12.619Z,0
2017-02-10T04:40:53.153Z,0
2017-02-10T04:41:33.689Z,0
2017-02-10T04:42:14.206Z,0
2017-02-10T04:42:54.735Z,0
2017-02-10T04:43:35.260Z,0
2017-02-10T04:44:15.788Z,0
2017-02-10T04:44:56.317Z,0
2017-02-10T04:45:36.844Z,0
2017-02-10T04:46:17.369Z,0
2017-02-10T04:46:59.339Z,0
2017-02-10T04:47:39.938Z,0
2017-02-10T04:48:20.465Z,0
2017-02-10T04:49:00.998Z,0
2017-02-10T04:49:41.568Z,0
2017-02-10T04:50:22.099Z,0
2017-02-10T04:51:02.627Z,0
2017-02-10T04:51:43.157Z,0
2017-02-10T04:52:23.690Z,0
2017-02-10T04:53:04.221Z,0
2017-02-10T04:53:44.751Z,0
2017-02-10T04:54:25.291Z,0
2017-02-10T04:55:05.829Z,0
2017-02-10T04:55:46.352Z,0
2017-02-10T04:56:26.871Z,0
2017-02-10T04:57:07.416Z,0
2017-02-10T04:57:47.933Z,0
2017-02-10T04:58:28.464Z,0
2017-02-10T04:59:09.100Z,0
2017-02-10T04:59:49.767Z,0
2017-02-10T05:00:30.290Z,0
2017-02-10T05:01:10.822Z,0
2017-02-10T05:01:51.355Z,0
2017-02-10T05:02:31.889Z,0
2017-02-10T05:03:12.418Z,0
2017-02-10T05:03:52.947Z,0
2017-02-10T05:04:33.468Z,0
2017-02-10T05:05:13.996Z,0
2017-02-10T05:05:54.535Z,0
2017-02-10T05:06:35.061Z,0
2017-02-10T05:07:15.584Z,0
2017-02-10T05:07:56.141Z,0
2017-02-10T05:08:36.690Z,0
2017-02-10T05:09:17.234Z,0
2017-02-10T05:09:57.794Z,0
2017-02-10T05:10:38.331Z,0
2017-02-10T05:11:18.862Z,0
2017-02-10T05:11:59.398Z,0
2017-02-10T05:12:39.973Z,0
2017-02-10T05:13:20.512Z,0
2017-02-10T05:14:01.064Z,0
2017-02-10T05:14:41.603Z,0
2017-02-10T05:15:22.129Z,0
2017-02-10T05:16:02.660Z,0
2017-02-10T05:16:43.189Z,0
2017-02-10T05:17:23.732Z,0
2017-02-10T05:18:04.253Z,0
2017-02-10T05:18:44.762Z,0
2017-02-10T05:19:25.298Z,0
2017-02-10T05:20:05.840Z,0
2017-02-10T05:20:46.367Z,0
2017-02-10T05:21:26.911Z,0
2017-02-10T05:22:07.449Z,0
2017-02-10T05:22:47.983Z,0
2017-02-10T05:23:28.519Z,0
2017-02-10T05:24:09.058Z,0
2017-02-10T05:24:49.884Z,0
2017-02-10T05:25:30.425Z,0
2017-02-10T05:26:10.958Z,0
2017-02-10T05:26:51.483Z,0
2017-02-10T05:27:32.016Z,0
2017-02-10T05:28:12.549Z,0
2017-02-10T05:28:53.080Z,0
2017-02-10T05:29:33.620Z,0
2017-02-10T05:30:14.138Z,0
2017-02-10T05:30:54.677Z,0
2017-02-10T05:31:35.205Z,0
2017-02-10T05:32:15.732Z,0
2017-02-10T05:32:56.264Z,0
2017-02-10T05:33:36.782Z,0
2017-02-10T05:34:17.314Z,0
2017-02-10T05:34:57.855Z,0
2017-02-10T05:35:38.389Z,0
2017-02-10T05:36:18.922Z,0
2017-02-10T05:36:59.452Z,0
2017-02-10T05:37:39.969Z,0
2017-02-10T05:38:20.506Z,0
2017-02-10T05:39:01.043Z,0
2017-02-10T05:41:30.511Z,0
2017-02-10T05:42:11.041Z,0
2017-02-10T05:42:51.572Z,0
2017-02-10T05:43:32.101Z,0
2017-02-10T05:44:12.623Z,0
2017-02-10T05:44:53.147Z,0
2017-02-10T05:45:33.673Z,0
2017-02-10T05:46:14.203Z,0
2017-02-10T05:46:54.758Z,0
2017-02-10T05:47:35.289Z,0
2017-02-10T05:48:15.846Z,0
2017-02-10T05:48:56.394Z,0
2017-02-10T05:49:36.933Z,0
2017-02-10T05:50:17.455Z,0
2017-02-10T05:50:57.985Z,0
2017-02-10T05:51:38.511Z,0
2017-02-10T05:52:19.051Z,0
2017-02-10T05:52:59.578Z,0
2017-02-10T05:53:40.102Z,0
2017-02-10T05:54:20.631Z,0
2017-02-10T05:55:01.155Z,0
2017-02-10T05:55:41.679Z,0
2017-02-10T05:56:22.208Z,0
2017-02-10T05:57:02.736Z,0
2017-02-10T05:57:43.272Z,0
2017-02-10T05:58:23.794Z,0
2017-02-10T05:59:04.316Z,0
2017-02-10T05:59:44.833Z,0
2017-02-10T06:00:25.367Z,0
2017-02-10T06:01:05.906Z,0
2017-02-10T06:01:46.439Z,0
2017-02-10T06:02:27.024Z,0
2017-02-10T06:03:07.462Z,0
2017-02-10T06:03:47.997Z,0
2017-02-10T06:04:28.522Z,0
2017-02-10T06:05:09.048Z,0
2017-02-10T06:05:49.593Z,0
2017-02-10T06:06:30.131Z,0
2017-02-10T06:07:10.665Z,0
2017-02-10T06:07:51.197Z,0
2017-02-10T06:08:31.717Z,0
2017-02-10T06:09:12.233Z,0
2017-02-10T06:09:52.761Z,0
2017-02-10T06:10:33.284Z,0
2017-02-10T06:11:13.812Z,0
2017-02-10T06:11:54.344Z,0
2017-02-10T06:12:34.874Z,0
2017-02-10T06:13:15.408Z,0
2017-02-10T06:13:55.933Z,0
2017-02-10T06:14:36.460Z,0
2017-02-10T06:15:16.989Z,0
2017-02-10T06:15:57.519Z,0
2017-02-10T06:16:38.056Z,0
2017-02-10T06:17:18.589Z,0
2017-02-10T06:17:59.113Z,0
2017-02-10T06:18:39.641Z,0
2017-02-10T06:19:20.164Z,0
2017-02-10T06:20:00.688Z,0
2017-02-10T06:20:41.213Z,0
2017-02-10T06:21:21.734Z,0
2017-02-10T06:22:02.267Z,0
2017-02-10T06:22:42.799Z,0
2017-02-10T06:23:23.310Z,0
2017-02-10T06:24:03.831Z,0
2017-02-10T06:24:44.367Z,0
2017-02-10T06:25:24.905Z,0
2017-02-10T06:26:05.421Z,0
2017-02-10T06:26:45.949Z,0
2017-02-10T06:27:26.467Z,0
2017-02-10T06:28:07.019Z,0
2017-02-10T06:28:47.520Z,0
2017-02-10T06:29:28.048Z,0
2017-02-10T06:30:08.581Z,0
2017-02-10T06:30:49.112Z,0
2017-02-10T06:31:29.643Z,0
2017-02-10T06:32:10.164Z,0
2017-02-10T06:32:50.706Z,0
2017-02-10T06:33:31.237Z,0
2017-02-10T06:34:11.758Z,0
2017-02-10T06:34:52.288Z,0
2017-02-10T06:35:32.815Z,0
2017-02-10T06:36:13.346Z,0
2017-02-10T06:36:53.878Z,0
2017-02-10T06:37:34.418Z,0
2017-02-10T06:38:14.934Z,0
2017-02-10T06:38:55.464Z,0
2017-02-10T06:39:35.987Z,0
2017-02-10T06:40:16.528Z,0
2017-02-10T06:40:57.061Z,0
2017-02-10T06:41:37.581Z,0
2017-02-10T06:42:18.117Z,0
2017-02-10T06:42:58.645Z,0
2017-02-10T06:43:39.177Z,0
2017-02-10T06:44:19.712Z,0
2017-02-10T06:45:00.242Z,0
2017-02-10T06:45:40.774Z,0
2017-02-10T06:46:21.304Z,0
2017-02-10T06:47:01.835Z,0
2017-02-10T06:47:42.446Z,0
2017-02-10T06:48:22.969Z,0
2017-02-10T06:49:03.500Z,0
2017-02-10T06:49:44.078Z,0
2017-02-10T06:50:24.627Z,0
2017-02-10T06:51:05.150Z,0
2017-02-10T06:51:45.683Z,0
2017-02-10T06:52:26.219Z,0
2017-02-10T06:53:06.751Z,0
2017-02-10T06:53:47.299Z,0
2017-02-10T06:54:27.844Z,0
2017-02-10T06:55:08.376Z,0
2017-02-10T06:55:48.909Z,0
2017-02-10T06:56:29.429Z,0
2017-02-10T06:57:09.959Z,0
2017-02-10T06:57:50.485Z,0
2017-02-10T06:58:31.029Z,0
2017-02-10T06:59:11.549Z,0
2017-02-10T06:59:52.079Z,0
2017-02-10T07:00:32.603Z,0
2017-02-10T07:01:13.134Z,0
2017-02-10T07:01:53.661Z,0
2017-02-10T07:02:34.188Z,0
2017-02-10T07:03:14.744Z,0
2017-02-10T07:03:55.247Z,0
2017-02-10T07:04:35.774Z,0
2017-02-10T07:05:16.298Z,0
2017-02-10T07:05:56.834Z,0
2017-02-10T07:06:37.368Z,0
2017-02-10T07:07:17.994Z,0
2017-02-10T07:07:58.521Z,0
2017-02-10T07:08:39.051Z,0
2017-02-10T07:09:19.580Z,0
2017-02-10T07:10:00.109Z,0
2017-02-10T07:10:40.648Z,0
2017-02-10T07:11:21.176Z,0
2017-02-10T07:12:01.708Z,0
2017-02-10T07:12:42.240Z,0
2017-02-10T07:13:22.767Z,0
2017-02-10T07:14:03.301Z,0
2017-02-10T07:14:43.819Z,0
2017-02-10T07:15:24.378Z,0
2017-02-10T07:16:04.907Z,0
2017-02-10T07:16:45.439Z,0
2017-02-10T07:17:25.969Z,0
2017-02-10T07:18:06.500Z,0
2017-02-10T07:18:47.030Z,0
2017-02-10T07:19:27.544Z,0
2017-02-10T07:20:08.077Z,0
2017-02-10T07:20:48.602Z,0
2017-02-10T07:21:29.135Z,0
2017-02-10T07:22:09.671Z,5
2017-02-10T07:22:50.198Z,5
2017-02-10T07:23:30.730Z,5
2017-02-10T07:24:11.251Z,5
2017-02-10T07:24:51.780Z,5
2017-02-10T07:25:32.341Z,0
2017-02-10T07:26:12.833Z,0
2017-02-10T07:26:53.358Z,5
2017-02-10T07:27:33.884Z,5
2017-02-10T07:28:14.415Z,5
2017-02-10T07:28:54.943Z,5
2017-02-10T07:29:35.458Z,5
2017-02-10T07:30:15.983Z,5
2017-02-10T07:30:56.517Z,5
2017-02-10T07:31:37.056Z,5
2017-02-10T07:32:17.611Z,5
2017-02-10T07:32:58.111Z,5
2017-02-10T07:33:38.641Z,5
2017-02-10T07:34:19.178Z,5
2017-02-10T07:34:59.697Z,5
2017-02-10T07:35:40.224Z,5
2017-02-10T07:36:20.755Z,5
2017-02-10T07:37:01.286Z,5
2017-02-10T07:37:41.854Z,5
2017-02-10T07:38:22.382Z,5
2017-02-10T07:39:02.924Z,5
2017-02-10T07:39:43.450Z,5
2017-02-10T07:40:23.976Z,5
2017-02-10T07:41:04.507Z,5
2017-02-10T07:41:45.068Z,5
2017-02-10T07:42:25.587Z,5
2017-02-10T07:43:06.113Z,5
2017-02-10T07:43:46.649Z,5
2017-02-10T07:44:27.167Z,5
2017-02-10T07:46:47.585Z,5
2017-02-10T07:47:28.108Z,5
2017-02-10T07:48:08.634Z,5
2017-02-10T07:48:49.146Z,5
2017-02-10T07:49:29.673Z,5
2017-02-10T07:50:10.202Z,5
2017-02-10T07:50:50.729Z,5
2017-02-10T07:51:31.254Z,5
2017-02-10T07:52:11.783Z,10
2017-02-10T07:52:52.303Z,10
2017-02-10T07:53:32.841Z,10
2017-02-10T07:54:13.371Z,10
2017-02-10T07:54:53.905Z,10
2017-02-10T07:55:34.513Z,10
2017-02-10T07:56:15.039Z,10
2017-02-10T07:56:55.572Z,10
2017-02-10T07:57:36.108Z,10
2017-02-10T07:58:16.643Z,10
2017-02-10T07:58:57.167Z,10
2017-02-10T07:59:37.710Z,10
2017-02-10T08:00:18.228Z,10
2017-02-10T08:00:58.763Z,10
2017-02-10T08:01:39.297Z,10
2017-02-10T08:02:19.845Z,10
2017-02-10T08:03:00.373Z,10
2017-02-10T08:03:40.900Z,10
2017-02-10T08:04:21.439Z,15
2017-02-10T08:05:01.973Z,15
2017-02-10T08:05:42.508Z,15
2017-02-10T08:06:23.027Z,15
2017-02-10T08:07:03.555Z,15
2017-02-10T08:07:44.085Z,15
2017-02-10T08:08:24.611Z,15
2017-02-10T08:09:05.135Z,15
2017-02-10T08:09:45.664Z,15
2017-02-10T08:10:26.185Z,15
2017-02-10T08:11:06.725Z,15
2017-02-10T08:11:47.241Z,15
2017-02-10T08:12:27.768Z,15
2017-02-10T08:13:08.331Z,15
2017-02-10T08:13:48.862Z,15
2017-02-10T08:14:29.394Z,15
2017-02-10T08:15:09.928Z,15
2017-02-10T08:15:50.462Z,15
2017-02-10T08:16:30.980Z,15
2017-02-10T08:17:11.497Z,15
2017-02-10T08:17:52.026Z,15
2017-02-10T08:18:32.541Z,15
2017-02-10T08:19:13.062Z,15
2017-02-10T08:19:53.588Z,15
2017-02-10T08:20:34.139Z,20
2017-02-10T08:21:14.657Z,20
2017-02-10T08:21:55.183Z,20
2017-02-10T08:22:35.696Z,20
2017-02-10T08:23:16.226Z,20
2017-02-10T08:23:56.768Z,20
2017-02-10T08:24:37.279Z,20
2017-02-10T08:25:17.810Z,20
2017-02-10T08:25:58.364Z,25
2017-02-10T08:26:38.870Z,25
2017-02-10T08:27:19.397Z,25
2017-02-10T08:27:59.927Z,25
2017-02-10T08:28:40.456Z,25
2017-02-10T08:29:21.020Z,25
2017-02-10T08:30:01.557Z,25
2017-02-10T08:30:42.088Z,30
2017-02-10T08:31:22.620Z,30
2017-02-10T08:32:03.229Z,30
2017-02-10T08:32:43.760Z,30
2017-02-10T08:33:24.293Z,30
2017-02-10T08:34:04.827Z,30
2017-02-10T08:34:45.344Z,30
2017-02-10T08:35:25.897Z,30
2017-02-10T08:36:06.431Z,30
2017-02-10T08:36:46.959Z,30
2017-02-10T08:37:27.585Z,30
2017-02-10T08:38:08.122Z,30
2017-02-10T08:38:48.653Z,30
2017-02-10T08:39:29.176Z,30
2017-02-10T08:40:09.713Z,30
2017-02-10T08:40:50.239Z,30
2017-02-10T08:41:30.758Z,30
2017-02-10T08:42:11.288Z,30
2017-02-10T08:42:51.846Z,30
2017-02-10T08:43:32.375Z,35
2017-02-10T08:44:12.916Z,35
2017-02-10T08:44:53.453Z,35
2017-02-10T08:45:33.983Z,35
2017-02-10T08:46:14.516Z,30
2017-02-10T08:46:55.046Z,30
2017-02-10T08:47:35.579Z,30
2017-02-10T08:48:16.111Z,30
2017-02-10T08:48:56.645Z,30
2017-02-10T08:49:37.186Z,30
2017-02-10T08:50:17.717Z,30
2017-02-10T08:50:58.249Z,30
2017-02-10T08:51:38.781Z,30
2017-02-10T08:52:19.308Z,30
2017-02-10T08:52:59.846Z,30
2017-02-10T08:53:40.370Z,30
2017-02-10T08:54:20.896Z,30
2017-02-10T08:55:01.429Z,30
2017-02-10T08:55:41.958Z,30
2017-02-10T08:56:22.493Z,30
2017-02-10T08:57:03.024Z,30
2017-02-10T08:57:43.549Z,30
2017-02-10T08:58:24.142Z,30
2017-02-10T08:59:04.688Z,30
2017-02-10T08:59:45.190Z,30
2017-02-10T09:00:25.726Z,30
2017-02-10T09:01:06.260Z,25
2017-02-10T09:01:46.782Z,25
2017-02-10T09:02:27.301Z,25
2017-02-10T09:03:07.823Z,30
2017-02-10T09:03:48.347Z,30
2017-02-10T09:04:28.873Z,25
2017-02-10T09:05:09.402Z,25
2017-02-10T09:05:49.932Z,25
2017-02-10T09:06:30.478Z,25
2017-02-10T09:07:10.989Z,25
2017-02-10T09:07:51.519Z,25
2017-02-10T09:08:32.067Z,25
2017-02-10T09:09:12.595Z,25
2017-02-10T09:09:53.133Z,25
2017-02-10T09:10:33.684Z,25
2017-02-10T09:11:14.216Z,25
2017-02-10T09:11:54.752Z,25
2017-02-10T09:12:35.318Z,30
2017-02-10T09:13:15.839Z,30
2017-02-10T09:13:56.370Z,30
2017-02-10T09:14:36.887Z,35
2017-02-10T09:15:17.417Z,30
2017-02-10T09:15:57.955Z,30
2017-02-10T09:16:38.465Z,35
2017-02-10T09:17:19.004Z,30
2017-02-10T09:17:59.535Z,30
2017-02-10T09:18:40.058Z,35
2017-02-10T09:19:20.605Z,35
2017-02-10T09:20:01.133Z,35
2017-02-10T09:20:41.668Z,35
2017-02-10T09:21:22.179Z,30
2017-02-10T09:22:02.739Z,30
2017-02-10T09:22:43.273Z,30
2017-02-10T09:23:23.802Z,30
2017-02-10T09:24:04.326Z,30
2017-02-10T09:24:44.852Z,30
2017-02-10T09:25:25.384Z,35
2017-02-10T09:26:05.917Z,35
2017-02-10T09:26:46.437Z,35
2017-02-10T09:27:26.969Z,35
2017-02-10T09:28:07.497Z,35
2017-02-10T09:28:48.031Z,35
2017-02-10T09:29:28.554Z,35
2017-02-10T09:30:09.079Z,35
2017-02-10T09:30:49.610Z,35
2017-02-10T09:31:30.143Z,35
2017-02-10T09:32:10.677Z,35
2017-02-10T09:32:51.211Z,35
2017-02-10T09:33:31.742Z,35
2017-02-10T09:34:12.271Z,35
2017-02-10T09:34:52.804Z,35
2017-02-10T09:35:33.335Z,35
2017-02-10T09:36:13.864Z,35
2017-02-10T09:36:54.408Z,35
2017-02-10T09:37:34.939Z,30
2017-02-10T09:38:15.465Z,35
2017-02-10T09:38:56.009Z,35
2017-02-10T09:39:36.518Z,35
2017-02-10T09:40:17.057Z,35
2017-02-10T09:40:57.588Z,35
2017-02-10T09:41:38.113Z,35
2017-02-10T09:42:18.643Z,35
2017-02-10T09:42:59.181Z,40
2017-02-10T09:43:39.711Z,40
2017-02-10T09:44:20.239Z,35
2017-02-10T09:45:00.767Z,35
2017-02-10T09:45:41.303Z,30
2017-02-10T09:46:21.833Z,35
2017-02-10T09:47:02.364Z,35
2017-02-10T09:47:42.891Z,35
2017-02-10T09:48:23.419Z,35
2017-02-10T09:49:03.955Z,35
2017-02-10T09:49:44.496Z,35
2017-02-10T09:50:25.030Z,35
2017-02-10T09:51:05.563Z,35
2017-02-10T09:51:46.090Z,35
2017-02-10T09:52:26.621Z,40
2017-02-10T09:53:07.151Z,45
2017-02-10T09:53:47.683Z,40
2017-02-10T09:54:28.203Z,35
2017-02-10T09:55:08.732Z,35
2017-02-10T09:55:49.260Z,35
2017-02-10T09:56:29.792Z,35
2017-02-10T09:57:10.318Z,35
2017-02-10T09:57:50.937Z,35
2017-02-10T09:58:31.414Z,35
2017-02-10T09:59:11.937Z,35
2017-02-10T09:59:52.466Z,35
2017-02-10T10:00:33.000Z,35
2017-02-10T10:01:13.531Z,35
2017-02-10T10:01:54.060Z,35
2017-02-10T10:02:34.595Z,35
2017-02-10T10:03:15.118Z,35
2017-02-10T10:03:55.657Z,35
2017-02-10T10:04:36.185Z,35
2017-02-10T10:05:16.714Z,35
2017-02-10T10:05:57.238Z,35
2017-02-10T10:06:37.769Z,35
2017-02-10T10:07:18.302Z,35
2017-02-10T10:07:58.834Z,35
2017-02-10T10:08:39.357Z,35
2017-02-10T10:09:19.891Z,35
2017-02-10T10:10:00.418Z,35
2017-02-10T10:10:40.949Z,40
2017-02-10T10:11:21.479Z,40
2017-02-10T10:12:02.016Z,40
2017-02-10T10:12:42.549Z,45
2017-02-10T10:13:23.079Z,45
2017-02-10T10:14:03.608Z,45
2017-02-10T10:14:44.139Z,40
2017-02-10T10:15:24.657Z,40
2017-02-10T10:16:05.188Z,40
2017-02-10T10:16:45.721Z,40
2017-02-10T10:17:26.256Z,45
2017-02-10T10:18:06.792Z,45
2017-02-10T10:18:47.317Z,40
2017-02-10T10:19:27.850Z,40
2017-02-10T10:20:08.368Z,40
2017-02-10T10:20:48.925Z,45
2017-02-10T10:21:29.457Z,45
2017-02-10T10:22:09.992Z,45
2017-02-10T10:22:50.524Z,45
2017-02-10T10:23:31.054Z,45
2017-02-10T10:24:11.581Z,45
2017-02-10T10:24:52.112Z,40
2017-02-10T10:25:32.645Z,45
2017-02-10T10:26:13.164Z,45
2017-02-10T10:26:53.692Z,40
2017-02-10T10:27:34.228Z,40
2017-02-10T10:28:14.763Z,40
2017-02-10T10:28:55.289Z,40
2017-02-10T10:29:35.815Z,35
2017-02-10T10:30:16.334Z,35
2017-02-10T10:30:56.867Z,35
2017-02-10T10:31:37.399Z,40
2017-02-10T10:32:17.927Z,40
2017-02-10T10:32:58.460Z,40
2017-02-10T10:33:38.993Z,40
2017-02-10T10:34:19.520Z,40
2017-02-10T10:35:00.051Z,45
2017-02-10T10:35:40.582Z,45
2017-02-10T10:36:21.117Z,45
2017-02-10T10:37:01.647Z,45
2017-02-10T10:37:42.183Z,40
2017-02-10T10:38:22.717Z,40
2017-02-10T10:39:03.252Z,40
2017-02-10T10:39:43.780Z,40
2017-02-10T10:40:24.305Z,40
2017-02-10T10:41:04.838Z,40
2017-02-10T10:41:45.370Z,45
2017-02-10T10:42:25.906Z,45
2017-02-10T10:43:06.439Z,45
2017-02-10T10:43:46.969Z,40
2017-02-10T10:44:27.497Z,40
2017-02-10T10:45:08.020Z,40
2017-02-10T10:45:48.558Z,40
2017-02-10T10:46:29.089Z,40
2017-02-10T10:47:09.616Z,40
2017-02-10T10:47:50.135Z,40
2017-02-10T10:48:30.664Z,40
2017-02-10T10:49:11.196Z,40
2017-02-10T10:49:51.725Z,45
2017-02-10T10:50:32.251Z,45
2017-02-10T10:51:12.784Z,50